Rock Springs, WI (53961)

11:24 AM CDT on April 25, 2015 (GMT -0500)
Reedsburg Muni, Reedsburg, WI | | Change Station
CLOSE
Current Station
Airport
Location: Reedsburg Muni, Reedsburg, WI,
Elevation: 906 ft
Nearby Weather Stations

Elev 906 ft 43.53 °N, 89.98 °W | Updated 9 minutes ago

Overcast
Overcast
45 °F
Feels Like 39 °F
N
13
Wind Variable Wind from East

Today
High -- | Low -- °F
--% Chance of Precip.
Yesterday
High -- | Low -- °F
Precip. -- in
6:01 AM 7:54 PM
Waxing Crescent, 47% visible
Pressure 29.84 in
Visibility 10.0 miles
Clouds Scattered Clouds 2300 ft
Overcast 4200 ft
Windchill 39 °F
Dew Point 36 °F
Humidity 71%
Rainfall 0.00 in
Snow Depth Not available.
UV 2 out of 12
Pollen 9.20 out of 12
Air Quality Not available.
Flu Activity Local Activity
METAR KC35 251615Z AUTO 08011KT 10SM SCT023 OVC042 07/02 A2984 RMK AO2 T00720022

More Conditions Fewer Conditions

Pressure 29.84 in
Visibility 10.0 miles
Clouds Scattered Clouds 2300 ft
Overcast 4200 ft
Windchill 39 °F
Dew Point 36 °F
Humidity 71%
Rainfall 0.00 in
Snow Depth Not available.
UV 2 out of 12
Pollen 9.20 out of 12
Air Quality Not available.
Flu Activity Local Activity
METAR KC35 251615Z AUTO 08011KT 10SM SCT023 OVC042 07/02 A2984 RMK AO2 T00720022

More Conditions Fewer Conditions

10-Day Weather Forecast

Almanac

Astronomy

Apr. 25, 2015 Rise Set
Actual Time
Civil Twilight
Nautical Twilight
Astronomical Twilight
Moon
Length of Visible Light
Length of Day
Tomorrow will be .
, % of the Moon is Illuminated

Today's Extremes

State Highs State Lows

Community

WunderPhotos

Upload Photos

1,816,732 photos uploaded!

WunderBlogs® & News

Nearby

Air Quality

  Air Quality AQ Index Pollutant
Not available.

Snow Depth

Station Depth Elevation

Earthquake Activity

City Distance Mag. Time & Date
Minimum magnitude displayed is 2.5.

Coastal Water Temperatures

Place Temperature

Stations

Nearby Weather Stations

Station Location Temp. Windchill Dew Point Humidity Wind Precip. Elev Updated Type